sensor_id;sensor_type;location;lat;lon;timestamp;P1;durP1;ratioP1;P2;durP2;ratioP2
10201;SDS011;5143;42.584;23.164;2023-03-01T00:02:15;9.77;;;5.93;;
10201;SDS011;5143;42.584;23.164;2023-03-01T00:04:41;7.63;;;6.00;;
10201;SDS011;5143;42.584;23.164;2023-03-01T00:07:08;7.37;;;5.87;;
10201;SDS011;5143;42.584;23.164;2023-03-01T00:09:37;7.67;;;5.87;;
10201;SDS011;5143;42.584;23.164;2023-03-01T00:12:05;8.27;;;6.07;;
10201;SDS011;5143;42.584;23.164;2023-03-01T00:14:32;9.10;;;6.00;;
10201;SDS011;5143;42.584;23.164;2023-03-01T00:16:59;9.00;;;6.43;;
10201;SDS011;5143;42.584;23.164;2023-03-01T00:19:26;7.00;;;6.10;;
10201;SDS011;5143;42.584;23.164;2023-03-01T00:21:53;8.77;;;6.77;;
10201;SDS011;5143;42.584;23.164;2023-03-01T00:24:20;7.40;;;5.90;;
10201;SDS011;5143;42.584;23.164;2023-03-01T00:26:48;7.73;;;6.20;;
10201;SDS011;5143;42.584;23.164;2023-03-01T00:29:14;8.30;;;5.83;;
10201;SDS011;5143;42.584;23.164;2023-03-01T00:31:41;8.37;;;5.87;;
10201;SDS011;5143;42.584;23.164;2023-03-01T00:34:08;8.20;;;5.83;;
10201;SDS011;5143;42.584;23.164;2023-03-01T00:36:36;9.50;;;5.97;;
10201;SDS011;5143;42.584;23.164;2023-03-01T00:39:03;7.70;;;6.30;;
10201;SDS011;5143;42.584;23.164;2023-03-01T00:41:31;7.80;;;6.00;;
10201;SDS011;5143;42.584;23.164;2023-03-01T00:44:01;8.47;;;5.77;;
10201;SDS011;5143;42.584;23.164;2023-03-01T00:46:28;8.30;;;5.90;;
10201;SDS011;5143;42.584;23.164;2023-03-01T00:48:55;9.20;;;6.00;;
10201;SDS011;5143;42.584;23.164;2023-03-01T00:51:23;8.50;;;6.57;;
10201;SDS011;5143;42.584;23.164;2023-03-01T00:53:50;7.03;;;6.13;;
10201;SDS011;5143;42.584;23.164;2023-03-01T00:56:18;10.47;;;6.57;;
10201;SDS011;5143;42.584;23.164;2023-03-01T00:58:45;8.27;;;6.27;;
10201;SDS011;5143;42.584;23.164;2023-03-01T01:01:14;8.27;;;6.53;;
10201;SDS011;5143;42.584;23.164;2023-03-01T01:03:44;8.57;;;7.37;;
10201;SDS011;5143;42.584;23.164;2023-03-01T01:06:15;8.70;;;7.07;;
10201;SDS011;5143;42.584;23.164;2023-03-01T01:08:43;7.43;;;6.57;;
10201;SDS011;5143;42.584;23.164;2023-03-01T01:11:10;7.67;;;6.77;;
10201;SDS011;5143;42.584;23.164;2023-03-01T01:13:37;8.40;;;6.90;;
10201;SDS011;5143;42.584;23.164;2023-03-01T01:16:04;7.43;;;6.27;;
10201;SDS011;5143;42.584;23.164;2023-03-01T01:18:33;8.93;;;7.03;;
10201;SDS011;5143;42.584;23.164;2023-03-01T01:21:03;9.60;;;8.07;;
10201;SDS011;5143;42.584;23.164;2023-03-01T01:23:31;8.60;;;7.70;;
10201;SDS011;5143;42.584;23.164;2023-03-01T01:26:02;8.63;;;7.83;;
10201;SDS011;5143;42.584;23.164;2023-03-01T01:28:30;8.50;;;7.57;;
10201;SDS011;5143;42.584;23.164;2023-03-01T01:30:57;8.37;;;7.57;;
10201;SDS011;5143;42.584;23.164;2023-03-01T01:33:24;8.57;;;7.43;;
10201;SDS011;5143;42.584;23.164;2023-03-01T01:35:52;8.93;;;7.57;;
10201;SDS011;5143;42.584;23.164;2023-03-01T01:38:19;8.53;;;7.63;;
10201;SDS011;5143;42.584;23.164;2023-03-01T01:40:47;9.20;;;7.90;;
10201;SDS011;5143;42.584;23.164;2023-03-01T01:43:16;10.43;;;7.80;;
10201;SDS011;5143;42.584;23.164;2023-03-01T01:45:46;10.07;;;8.10;;
10201;SDS011;5143;42.584;23.164;2023-03-01T01:48:14;9.17;;;8.00;;
10201;SDS011;5143;42.584;23.164;2023-03-01T01:50:44;14.13;;;9.10;;
10201;SDS011;5143;42.584;23.164;2023-03-01T01:53:16;10.03;;;8.60;;
10201;SDS011;5143;42.584;23.164;2023-03-01T01:55:45;9.20;;;8.07;;
10201;SDS011;5143;42.584;23.164;2023-03-01T01:58:15;10.33;;;8.50;;
10201;SDS011;5143;42.584;23.164;2023-03-01T02:00:45;11.60;;;8.47;;
10201;SDS011;5143;42.584;23.164;2023-03-01T02:03:13;11.73;;;8.40;;
10201;SDS011;5143;42.584;23.164;2023-03-01T02:05:44;9.70;;;7.80;;
10201;SDS011;5143;42.584;23.164;2023-03-01T02:08:18;10.60;;;8.13;;
10201;SDS011;5143;42.584;23.164;2023-03-01T02:10:47;8.07;;;7.27;;
10201;SDS011;5143;42.584;23.164;2023-03-01T02:13:15;8.10;;;7.30;;
10201;SDS011;5143;42.584;23.164;2023-03-01T02:15:42;7.80;;;7.00;;
10201;SDS011;5143;42.584;23.164;2023-03-01T02:18:10;6.23;;;5.63;;
10201;SDS011;5143;42.584;23.164;2023-03-01T02:20:40;6.57;;;5.97;;
10201;SDS011;5143;42.584;23.164;2023-03-01T02:23:16;7.90;;;7.10;;
10201;SDS011;5143;42.584;23.164;2023-03-01T02:25:46;7.67;;;6.10;;
10201;SDS011;5143;42.584;23.164;2023-03-01T02:28:32;7.80;;;6.23;;
10201;SDS011;5143;42.584;23.164;2023-03-01T02:31:01;6.83;;;6.00;;
10201;SDS011;5143;42.584;23.164;2023-03-01T02:33:47;7.30;;;6.27;;
10201;SDS011;5143;42.584;23.164;2023-03-01T02:36:15;6.60;;;6.00;;
10201;SDS011;5143;42.584;23.164;2023-03-01T02:38:44;7.30;;;6.63;;
10201;SDS011;5143;42.584;23.164;2023-03-01T02:41:13;9.13;;;7.10;;
10201;SDS011;5143;42.584;23.164;2023-03-01T02:43:44;7.30;;;6.13;;
10201;SDS011;5143;42.584;23.164;2023-03-01T02:46:14;7.70;;;6.00;;
10201;SDS011;5143;42.584;23.164;2023-03-01T02:48:43;7.33;;;6.10;;
10201;SDS011;5143;42.584;23.164;2023-03-01T02:51:14;7.83;;;6.60;;
10201;SDS011;5143;42.584;23.164;2023-03-01T02:53:49;7.27;;;6.67;;
10201;SDS011;5143;42.584;23.164;2023-03-01T02:56:25;7.97;;;6.63;;
10201;SDS011;5143;42.584;23.164;2023-03-01T02:58:54;6.83;;;6.17;;
10201;SDS011;5143;42.584;23.164;2023-03-01T03:01:25;8.70;;;6.67;;
10201;SDS011;5143;42.584;23.164;2023-03-01T03:04:01;9.13;;;6.83;;
10201;SDS011;5143;42.584;23.164;2023-03-01T03:06:28;7.00;;;6.30;;
10201;SDS011;5143;42.584;23.164;2023-03-01T03:08:55;8.97;;;7.27;;
10201;SDS011;5143;42.584;23.164;2023-03-01T03:11:22;8.03;;;7.17;;
10201;SDS011;5143;42.584;23.164;2023-03-01T03:13:49;7.50;;;6.70;;
10201;SDS011;5143;42.584;23.164;2023-03-01T03:16:18;8.03;;;6.70;;
10201;SDS011;5143;42.584;23.164;2023-03-01T03:18:45;7.77;;;6.97;;
10201;SDS011;5143;42.584;23.164;2023-03-01T03:21:12;6.83;;;6.13;;
10201;SDS011;5143;42.584;23.164;2023-03-01T03:23:39;7.33;;;6.60;;
10201;SDS011;5143;42.584;23.164;2023-03-01T03:26:06;8.23;;;7.13;;
10201;SDS011;5143;42.584;23.164;2023-03-01T03:28:33;7.57;;;6.53;;
10201;SDS011;5143;42.584;23.164;2023-03-01T03:31:00;7.90;;;6.40;;
10201;SDS011;5143;42.584;23.164;2023-03-01T03:33:30;6.47;;;5.73;;
10201;SDS011;5143;42.584;23.164;2023-03-01T03:35:57;5.73;;;4.97;;
10201;SDS011;5143;42.584;23.164;2023-03-01T03:38:24;4.90;;;4.40;;
10201;SDS011;5143;42.584;23.164;2023-03-01T03:40:51;5.27;;;4.10;;
10201;SDS011;5143;42.584;23.164;2023-03-01T03:43:26;4.80;;;4.13;;
10201;SDS011;5143;42.584;23.164;2023-03-01T03:45:53;4.27;;;3.87;;
10201;SDS011;5143;42.584;23.164;2023-03-01T03:48:22;4.60;;;4.07;;
10201;SDS011;5143;42.584;23.164;2023-03-01T03:50:51;4.70;;;3.97;;
10201;SDS011;5143;42.584;23.164;2023-03-01T03:53:19;4.40;;;3.73;;
10201;SDS011;5143;42.584;23.164;2023-03-01T03:55:47;5.57;;;3.80;;
10201;SDS011;5143;42.584;23.164;2023-03-01T03:58:17;4.47;;;3.37;;
10201;SDS011;5143;42.584;23.164;2023-03-01T04:00:46;3.87;;;3.50;;
10201;SDS011;5143;42.584;23.164;2023-03-01T04:03:15;4.30;;;3.90;;
10201;SDS011;5143;42.584;23.164;2023-03-01T04:05:43;4.70;;;3.70;;
10201;SDS011;5143;42.584;23.164;2023-03-01T04:08:12;4.47;;;4.07;;
10201;SDS011;5143;42.584;23.164;2023-03-01T04:10:40;4.57;;;3.97;;
10201;SDS011;5143;42.584;23.164;2023-03-01T04:13:10;4.57;;;4.17;;
10201;SDS011;5143;42.584;23.164;2023-03-01T04:15:37;5.00;;;4.17;;
10201;SDS011;5143;42.584;23.164;2023-03-01T04:18:05;5.80;;;4.33;;
10201;SDS011;5143;42.584;23.164;2023-03-01T04:20:33;4.97;;;4.47;;
10201;SDS011;5143;42.584;23.164;2023-03-01T04:23:01;4.67;;;4.27;;
10201;SDS011;5143;42.584;23.164;2023-03-01T04:25:38;5.30;;;4.80;;
10201;SDS011;5143;42.584;23.164;2023-03-01T04:28:05;5.07;;;4.40;;
10201;SDS011;5143;42.584;23.164;2023-03-01T04:30:33;4.60;;;4.20;;
10201;SDS011;5143;42.584;23.164;2023-03-01T04:33:02;5.20;;;4.70;;
10201;SDS011;5143;42.584;23.164;2023-03-01T04:35:30;5.63;;;4.93;;
10201;SDS011;5143;42.584;23.164;2023-03-01T04:37:57;5.80;;;5.20;;
10201;SDS011;5143;42.584;23.164;2023-03-01T04:40:24;4.97;;;4.47;;
10201;SDS011;5143;42.584;23.164;2023-03-01T04:42:53;7.93;;;5.57;;
10201;SDS011;5143;42.584;23.164;2023-03-01T04:45:19;7.10;;;6.00;;
10201;SDS011;5143;42.584;23.164;2023-03-01T04:47:46;6.23;;;5.63;;
10201;SDS011;5143;42.584;23.164;2023-03-01T04:50:13;6.33;;;5.50;;
10201;SDS011;5143;42.584;23.164;2023-03-01T04:52:42;6.73;;;5.83;;
10201;SDS011;5143;42.584;23.164;2023-03-01T04:55:09;6.47;;;5.77;;
10201;SDS011;5143;42.584;23.164;2023-03-01T04:57:37;7.87;;;6.27;;
10201;SDS011;5143;42.584;23.164;2023-03-01T05:00:06;7.77;;;6.00;;
10201;SDS011;5143;42.584;23.164;2023-03-01T05:02:45;9.90;;;6.60;;
10201;SDS011;5143;42.584;23.164;2023-03-01T05:05:19;7.30;;;6.33;;
10201;SDS011;5143;42.584;23.164;2023-03-01T05:07:50;8.23;;;6.40;;
10201;SDS011;5143;42.584;23.164;2023-03-01T05:10:19;8.07;;;6.33;;
10201;SDS011;5143;42.584;23.164;2023-03-01T05:12:46;6.63;;;5.47;;
10201;SDS011;5143;42.584;23.164;2023-03-01T05:15:14;7.37;;;6.27;;
10201;SDS011;5143;42.584;23.164;2023-03-01T05:17:41;7.10;;;6.40;;
10201;SDS011;5143;42.584;23.164;2023-03-01T05:20:08;9.60;;;7.27;;
10201;SDS011;5143;42.584;23.164;2023-03-01T05:22:36;7.93;;;7.00;;
10201;SDS011;5143;42.584;23.164;2023-03-01T05:25:03;9.30;;;7.73;;
10201;SDS011;5143;42.584;23.164;2023-03-01T05:27:32;12.83;;;9.13;;
10201;SDS011;5143;42.584;23.164;2023-03-01T05:29:59;11.87;;;9.07;;
10201;SDS011;5143;42.584;23.164;2023-03-01T05:32:39;22.17;;;15.37;;
10201;SDS011;5143;42.584;23.164;2023-03-01T05:35:08;22.10;;;14.70;;
10201;SDS011;5143;42.584;23.164;2023-03-01T05:37:38;10.17;;;8.43;;
10201;SDS011;5143;42.584;23.164;2023-03-01T05:40:06;10.27;;;7.57;;
10201;SDS011;5143;42.584;23.164;2023-03-01T05:42:40;9.73;;;7.53;;
10201;SDS011;5143;42.584;23.164;2023-03-01T05:45:08;8.27;;;7.37;;
10201;SDS011;5143;42.584;23.164;2023-03-01T05:47:35;10.73;;;8.10;;
10201;SDS011;5143;42.584;23.164;2023-03-01T05:50:04;9.10;;;7.50;;
10201;SDS011;5143;42.584;23.164;2023-03-01T05:52:32;8.83;;;7.63;;
10201;SDS011;5143;42.584;23.164;2023-03-01T05:54:59;8.77;;;6.87;;
10201;SDS011;5143;42.584;23.164;2023-03-01T05:57:27;8.67;;;6.87;;
10201;SDS011;5143;42.584;23.164;2023-03-01T05:59:54;8.10;;;6.57;;
10201;SDS011;5143;42.584;23.164;2023-03-01T06:02:21;7.37;;;6.40;;
10201;SDS011;5143;42.584;23.164;2023-03-01T06:04:48;7.40;;;6.07;;
10201;SDS011;5143;42.584;23.164;2023-03-01T06:07:16;8.00;;;6.07;;
10201;SDS011;5143;42.584;23.164;2023-03-01T06:09:43;7.33;;;6.10;;
10201;SDS011;5143;42.584;23.164;2023-03-01T06:12:10;6.90;;;5.33;;
10201;SDS011;5143;42.584;23.164;2023-03-01T06:14:36;6.33;;;5.57;;
10201;SDS011;5143;42.584;23.164;2023-03-01T06:17:03;7.80;;;6.40;;
10201;SDS011;5143;42.584;23.164;2023-03-01T06:19:30;7.83;;;6.83;;
10201;SDS011;5143;42.584;23.164;2023-03-01T06:21:56;7.90;;;6.90;;
10201;SDS011;5143;42.584;23.164;2023-03-01T06:24:24;7.77;;;6.57;;
10201;SDS011;5143;42.584;23.164;2023-03-01T06:26:53;10.13;;;6.63;;
10201;SDS011;5143;42.584;23.164;2023-03-01T06:29:20;6.87;;;6.17;;
10201;SDS011;5143;42.584;23.164;2023-03-01T06:31:47;6.87;;;6.17;;
10201;SDS011;5143;42.584;23.164;2023-03-01T06:34:14;9.30;;;7.10;;
10201;SDS011;5143;42.584;23.164;2023-03-01T06:36:41;10.37;;;6.80;;
10201;SDS011;5143;42.584;23.164;2023-03-01T06:39:07;9.13;;;6.63;;
10201;SDS011;5143;42.584;23.164;2023-03-01T06:41:36;10.33;;;6.50;;
10201;SDS011;5143;42.584;23.164;2023-03-01T06:44:03;8.17;;;5.70;;
10201;SDS011;5143;42.584;23.164;2023-03-01T06:46:30;8.00;;;6.37;;
10201;SDS011;5143;42.584;23.164;2023-03-01T06:48:56;8.30;;;6.50;;
10201;SDS011;5143;42.584;23.164;2023-03-01T06:51:23;9.20;;;6.73;;
10201;SDS011;5143;42.584;23.164;2023-03-01T06:53:50;8.17;;;6.50;;
10201;SDS011;5143;42.584;23.164;2023-03-01T06:56:17;9.40;;;6.17;;
10201;SDS011;5143;42.584;23.164;2023-03-01T06:58:45;7.67;;;6.40;;
10201;SDS011;5143;42.584;23.164;2023-03-01T07:01:11;6.63;;;5.97;;
10201;SDS011;5143;42.584;23.164;2023-03-01T07:03:38;9.27;;;6.33;;
10201;SDS011;5143;42.584;23.164;2023-03-01T07:06:05;6.63;;;5.70;;
10201;SDS011;5143;42.584;23.164;2023-03-01T07:08:32;8.87;;;6.40;;
10201;SDS011;5143;42.584;23.164;2023-03-01T07:10:58;7.30;;;6.43;;
10201;SDS011;5143;42.584;23.164;2023-03-01T07:13:27;10.37;;;6.70;;
10201;SDS011;5143;42.584;23.164;2023-03-01T07:15:55;11.03;;;7.60;;
10201;SDS011;5143;42.584;23.164;2023-03-01T07:18:22;11.20;;;8.83;;
10201;SDS011;5143;42.584;23.164;2023-03-01T07:20:49;11.90;;;7.97;;
10201;SDS011;5143;42.584;23.164;2023-03-01T07:23:16;9.23;;;7.73;;
10201;SDS011;5143;42.584;23.164;2023-03-01T07:25:42;8.97;;;7.47;;
10201;SDS011;5143;42.584;23.164;2023-03-01T07:28:09;8.23;;;6.97;;
10201;SDS011;5143;42.584;23.164;2023-03-01T07:30:36;8.93;;;7.03;;
10201;SDS011;5143;42.584;23.164;2023-03-01T07:33:04;7.07;;;6.33;;
10201;SDS011;5143;42.584;23.164;2023-03-01T07:35:31;6.87;;;5.70;;
10201;SDS011;5143;42.584;23.164;2023-03-01T07:37:58;8.47;;;5.67;;
10201;SDS011;5143;42.584;23.164;2023-03-01T07:40:25;6.20;;;4.63;;
10201;SDS011;5143;42.584;23.164;2023-03-01T07:42:54;6.17;;;5.30;;
10201;SDS011;5143;42.584;23.164;2023-03-01T07:45:22;8.13;;;5.70;;
10201;SDS011;5143;42.584;23.164;2023-03-01T07:47:50;8.97;;;5.43;;
10201;SDS011;5143;42.584;23.164;2023-03-01T07:50:18;5.67;;;5.07;;
10201;SDS011;5143;42.584;23.164;2023-03-01T07:52:45;6.40;;;4.87;;
10201;SDS011;5143;42.584;23.164;2023-03-01T07:55:12;8.93;;;5.27;;
10201;SDS011;5143;42.584;23.164;2023-03-01T07:57:39;6.47;;;4.90;;
10201;SDS011;5143;42.584;23.164;2023-03-01T08:00:07;6.20;;;4.83;;
10201;SDS011;5143;42.584;23.164;2023-03-01T08:02:36;7.10;;;4.90;;
10201;SDS011;5143;42.584;23.164;2023-03-01T08:05:03;6.60;;;4.63;;
10201;SDS011;5143;42.584;23.164;2023-03-01T08:07:31;8.17;;;5.17;;
10201;SDS011;5143;42.584;23.164;2023-03-01T08:09:59;6.80;;;4.93;;
10201;SDS011;5143;42.584;23.164;2023-03-01T08:12:25;7.43;;;5.20;;
10201;SDS011;5143;42.584;23.164;2023-03-01T08:14:53;8.23;;;5.03;;
10201;SDS011;5143;42.584;23.164;2023-03-01T08:17:20;7.90;;;5.23;;
10201;SDS011;5143;42.584;23.164;2023-03-01T08:19:46;6.87;;;4.67;;
10201;SDS011;5143;42.584;23.164;2023-03-01T08:22:13;7.23;;;4.60;;
10201;SDS011;5143;42.584;23.164;2023-03-01T08:24:41;6.20;;;4.10;;
10201;SDS011;5143;42.584;23.164;2023-03-01T08:27:08;8.63;;;5.10;;
10201;SDS011;5143;42.584;23.164;2023-03-01T08:29:35;6.70;;;4.67;;
10201;SDS011;5143;42.584;23.164;2023-03-01T08:32:01;6.47;;;4.57;;
10201;SDS011;5143;42.584;23.164;2023-03-01T08:34:28;6.23;;;4.67;;
10201;SDS011;5143;42.584;23.164;2023-03-01T08:36:56;9.93;;;5.80;;
10201;SDS011;5143;42.584;23.164;2023-03-01T08:39:23;6.27;;;5.07;;
10201;SDS011;5143;42.584;23.164;2023-03-01T08:41:51;7.40;;;4.73;;
10201;SDS011;5143;42.584;23.164;2023-03-01T08:44:18;8.10;;;5.17;;
10201;SDS011;5143;42.584;23.164;2023-03-01T08:46:46;7.60;;;5.30;;
10201;SDS011;5143;42.584;23.164;2023-03-01T08:49:15;7.40;;;4.40;;
10201;SDS011;5143;42.584;23.164;2023-03-01T08:51:43;10.97;;;5.27;;
10201;SDS011;5143;42.584;23.164;2023-03-01T08:54:11;7.17;;;5.30;;
10201;SDS011;5143;42.584;23.164;2023-03-01T08:56:39;8.10;;;4.90;;
10201;SDS011;5143;42.584;23.164;2023-03-01T08:59:08;8.40;;;5.27;;
10201;SDS011;5143;42.584;23.164;2023-03-01T09:01:36;7.03;;;5.23;;
10201;SDS011;5143;42.584;23.164;2023-03-01T09:04:03;7.33;;;4.43;;
10201;SDS011;5143;42.584;23.164;2023-03-01T09:06:30;7.53;;;4.50;;
10201;SDS011;5143;42.584;23.164;2023-03-01T09:08:58;7.80;;;4.73;;
10201;SDS011;5143;42.584;23.164;2023-03-01T09:11:25;12.03;;;5.10;;
10201;SDS011;5143;42.584;23.164;2023-03-01T09:13:52;6.33;;;4.10;;
10201;SDS011;5143;42.584;23.164;2023-03-01T09:16:20;5.67;;;3.97;;
10201;SDS011;5143;42.584;23.164;2023-03-01T09:18:48;5.37;;;3.93;;
10201;SDS011;5143;42.584;23.164;2023-03-01T09:21:17;5.17;;;3.30;;
10201;SDS011;5143;42.584;23.164;2023-03-01T09:23:46;3.80;;;3.23;;
10201;SDS011;5143;42.584;23.164;2023-03-01T09:26:14;5.17;;;2.90;;
10201;SDS011;5143;42.584;23.164;2023-03-01T09:28:44;6.83;;;3.60;;
10201;SDS011;5143;42.584;23.164;2023-03-01T09:31:11;4.07;;;3.00;;
10201;SDS011;5143;42.584;23.164;2023-03-01T09:33:40;5.50;;;4.07;;
10201;SDS011;5143;42.584;23.164;2023-03-01T09:36:10;4.23;;;3.40;;
10201;SDS011;5143;42.584;23.164;2023-03-01T09:38:38;6.77;;;4.60;;
10201;SDS011;5143;42.584;23.164;2023-03-01T09:41:09;6.93;;;4.50;;
10201;SDS011;5143;42.584;23.164;2023-03-01T09:43:39;6.30;;;4.70;;
10201;SDS011;5143;42.584;23.164;2023-03-01T09:46:11;8.60;;;4.77;;
10201;SDS011;5143;42.584;23.164;2023-03-01T09:48:43;9.20;;;4.27;;
10201;SDS011;5143;42.584;23.164;2023-03-01T09:51:17;7.43;;;4.80;;
10201;SDS011;5143;42.584;23.164;2023-03-01T09:53:45;6.23;;;4.53;;
10201;SDS011;5143;42.584;23.164;2023-03-01T09:56:13;6.20;;;4.60;;
10201;SDS011;5143;42.584;23.164;2023-03-01T09:58:47;6.53;;;4.80;;
10201;SDS011;5143;42.584;23.164;2023-03-01T10:01:24;6.73;;;4.33;;
10201;SDS011;5143;42.584;23.164;2023-03-01T10:04:12;7.03;;;4.43;;
10201;SDS011;5143;42.584;23.164;2023-03-01T10:06:55;7.57;;;5.17;;
10201;SDS011;5143;42.584;23.164;2023-03-01T10:09:32;4.63;;;3.73;;
10201;SDS011;5143;42.584;23.164;2023-03-01T10:12:01;4.90;;;3.83;;
10201;SDS011;5143;42.584;23.164;2023-03-01T10:14:34;4.83;;;3.70;;
10201;SDS011;5143;42.584;23.164;2023-03-01T10:17:04;5.93;;;3.93;;
10201;SDS011;5143;42.584;23.164;2023-03-01T10:19:40;5.80;;;4.17;;
10201;SDS011;5143;42.584;23.164;2023-03-01T10:22:11;5.10;;;4.23;;
10201;SDS011;5143;42.584;23.164;2023-03-01T10:24:41;6.33;;;3.63;;
10201;SDS011;5143;42.584;23.164;2023-03-01T10:27:09;5.80;;;4.23;;
10201;SDS011;5143;42.584;23.164;2023-03-01T10:29:45;6.07;;;3.90;;
10201;SDS011;5143;42.584;23.164;2023-03-01T10:32:17;4.07;;;3.67;;
10201;SDS011;5143;42.584;23.164;2023-03-01T10:34:48;4.23;;;3.23;;
10201;SDS011;5143;42.584;23.164;2023-03-01T10:37:15;7.20;;;3.20;;
10201;SDS011;5143;42.584;23.164;2023-03-01T10:39:56;4.53;;;3.00;;
10201;SDS011;5143;42.584;23.164;2023-03-01T10:42:25;3.00;;;2.60;;
10201;SDS011;5143;42.584;23.164;2023-03-01T10:44:57;3.67;;;2.67;;
10201;SDS011;5143;42.584;23.164;2023-03-01T10:47:25;4.10;;;2.53;;
10201;SDS011;5143;42.584;23.164;2023-03-01T10:49:59;3.50;;;2.90;;
10201;SDS011;5143;42.584;23.164;2023-03-01T10:52:28;3.20;;;2.90;;
10201;SDS011;5143;42.584;23.164;2023-03-01T10:54:58;2.93;;;2.43;;
10201;SDS011;5143;42.584;23.164;2023-03-01T10:57:29;2.93;;;2.47;;
10201;SDS011;5143;42.584;23.164;2023-03-01T11:00:02;3.10;;;2.73;;
10201;SDS011;5143;42.584;23.164;2023-03-01T11:02:45;6.00;;;3.10;;
10201;SDS011;5143;42.584;23.164;2023-03-01T11:05:24;4.10;;;3.00;;
10201;SDS011;5143;42.584;23.164;2023-03-01T11:07:55;6.17;;;3.10;;
10201;SDS011;5143;42.584;23.164;2023-03-01T11:10:24;5.67;;;3.83;;
10201;SDS011;5143;42.584;23.164;2023-03-01T11:12:52;4.43;;;3.30;;
10201;SDS011;5143;42.584;23.164;2023-03-01T11:15:24;7.63;;;3.13;;
10201;SDS011;5143;42.584;23.164;2023-03-01T11:17:53;3.80;;;2.97;;
10201;SDS011;5143;42.584;23.164;2023-03-01T11:20:26;4.97;;;3.20;;
10201;SDS011;5143;42.584;23.164;2023-03-01T11:22:56;4.27;;;3.40;;
10201;SDS011;5143;42.584;23.164;2023-03-01T11:25:26;3.83;;;3.17;;
10201;SDS011;5143;42.584;23.164;2023-03-01T11:27:57;5.50;;;3.17;;
10201;SDS011;5143;42.584;23.164;2023-03-01T11:30:27;11.83;;;3.40;;
10201;SDS011;5143;42.584;23.164;2023-03-01T11:33:01;5.37;;;4.10;;
10201;SDS011;5143;42.584;23.164;2023-03-01T11:35:41;4.20;;;3.80;;
10201;SDS011;5143;42.584;23.164;2023-03-01T11:38:21;6.50;;;3.53;;
10201;SDS011;5143;42.584;23.164;2023-03-01T11:40:50;5.70;;;4.03;;
10201;SDS011;5143;42.584;23.164;2023-03-01T11:43:29;8.40;;;4.23;;
10201;SDS011;5143;42.584;23.164;2023-03-01T11:46:22;5.97;;;4.50;;
10201;SDS011;5143;42.584;23.164;2023-03-01T11:52:06;6.53;;;3.53;;
10201;SDS011;5143;42.584;23.164;2023-03-01T11:54:46;5.07;;;3.83;;
10201;SDS011;5143;42.584;23.164;2023-03-01T11:57:31;6.87;;;3.93;;
10201;SDS011;5143;42.584;23.164;2023-03-01T12:00:15;6.50;;;4.40;;
10201;SDS011;5143;42.584;23.164;2023-03-01T12:03:04;5.57;;;3.60;;
10201;SDS011;5143;42.584;23.164;2023-03-01T12:06:08;4.00;;;3.60;;
10201;SDS011;5143;42.584;23.164;2023-03-01T12:08:52;4.33;;;3.40;;
10201;SDS011;5143;42.584;23.164;2023-03-01T12:11:31;6.00;;;3.60;;
10201;SDS011;5143;42.584;23.164;2023-03-01T12:14:26;4.57;;;3.63;;
10201;SDS011;5143;42.584;23.164;2023-03-01T12:20:11;7.83;;;3.70;;
10201;SDS011;5143;42.584;23.164;2023-03-01T12:22:45;3.73;;;3.37;;
10201;SDS011;5143;42.584;23.164;2023-03-01T12:25:25;7.33;;;3.37;;
10201;SDS011;5143;42.584;23.164;2023-03-01T12:31:01;4.40;;;3.00;;
10201;SDS011;5143;42.584;23.164;2023-03-01T12:33:42;4.63;;;3.50;;
10201;SDS011;5143;42.584;23.164;2023-03-01T12:36:36;3.60;;;3.10;;
10201;SDS011;5143;42.584;23.164;2023-03-01T12:39:15;5.37;;;3.30;;
10201;SDS011;5143;42.584;23.164;2023-03-01T12:41:59;6.90;;;3.20;;
10201;SDS011;5143;42.584;23.164;2023-03-01T12:44:39;6.00;;;3.00;;
10201;SDS011;5143;42.584;23.164;2023-03-01T12:47:26;3.70;;;3.20;;
10201;SDS011;5143;42.584;23.164;2023-03-01T12:50:05;3.73;;;2.97;;
10201;SDS011;5143;42.584;23.164;2023-03-01T12:52:41;4.47;;;3.17;;
10201;SDS011;5143;42.584;23.164;2023-03-01T12:55:18;4.23;;;3.17;;
10201;SDS011;5143;42.584;23.164;2023-03-01T12:57:55;5.37;;;3.07;;
10201;SDS011;5143;42.584;23.164;2023-03-01T13:00:31;4.77;;;3.40;;
10201;SDS011;5143;42.584;23.164;2023-03-01T13:03:05;4.93;;;3.20;;
10201;SDS011;5143;42.584;23.164;2023-03-01T13:05:56;4.20;;;3.30;;
10201;SDS011;5143;42.584;23.164;2023-03-01T13:08:31;4.13;;;3.27;;
10201;SDS011;5143;42.584;23.164;2023-03-01T13:11:06;5.33;;;3.07;;
10201;SDS011;5143;42.584;23.164;2023-03-01T13:13:42;4.80;;;3.47;;
10201;SDS011;5143;42.584;23.164;2023-03-01T13:16:20;8.53;;;3.77;;
10201;SDS011;5143;42.584;23.164;2023-03-01T13:19:12;13.27;;;3.27;;
10201;SDS011;5143;42.584;23.164;2023-03-01T13:21:41;18.67;;;3.87;;
10201;SDS011;5143;42.584;23.164;2023-03-01T13:24:23;7.00;;;3.80;;
10201;SDS011;5143;42.584;23.164;2023-03-01T13:27:09;3.60;;;3.30;;
10201;SDS011;5143;42.584;23.164;2023-03-01T13:29:48;4.83;;;3.57;;
10201;SDS011;5143;42.584;23.164;2023-03-01T13:32:18;5.37;;;3.30;;
10201;SDS011;5143;42.584;23.164;2023-03-01T13:34:47;5.17;;;3.73;;
10201;SDS011;5143;42.584;23.164;2023-03-01T13:37:23;5.30;;;3.83;;
10201;SDS011;5143;42.584;23.164;2023-03-01T13:43:26;4.47;;;3.97;;
10201;SDS011;5143;42.584;23.164;2023-03-01T13:45:56;4.70;;;3.50;;
10201;SDS011;5143;42.584;23.164;2023-03-01T13:48:25;4.30;;;3.67;;
10201;SDS011;5143;42.584;23.164;2023-03-01T13:50:54;8.30;;;3.90;;
10201;SDS011;5143;42.584;23.164;2023-03-01T13:53:26;6.40;;;4.10;;
10201;SDS011;5143;42.584;23.164;2023-03-01T13:55:58;5.80;;;4.23;;
10201;SDS011;5143;42.584;23.164;2023-03-01T13:58:29;6.37;;;4.27;;
10201;SDS011;5143;42.584;23.164;2023-03-01T14:01:00;5.87;;;4.13;;
10201;SDS011;5143;42.584;23.164;2023-03-01T14:03:29;8.77;;;4.20;;
10201;SDS011;5143;42.584;23.164;2023-03-01T14:05:58;6.27;;;4.03;;
10201;SDS011;5143;42.584;23.164;2023-03-01T14:08:31;6.47;;;3.73;;
10201;SDS011;5143;42.584;23.164;2023-03-01T14:11:04;7.80;;;4.23;;
10201;SDS011;5143;42.584;23.164;2023-03-01T14:14:00;13.83;;;4.40;;
10201;SDS011;5143;42.584;23.164;2023-03-01T14:16:52;13.27;;;4.33;;
10201;SDS011;5143;42.584;23.164;2023-03-01T14:19:27;6.37;;;4.27;;
10201;SDS011;5143;42.584;23.164;2023-03-01T14:21:59;5.87;;;4.43;;
10201;SDS011;5143;42.584;23.164;2023-03-01T14:24:31;6.80;;;4.50;;
10201;SDS011;5143;42.584;23.164;2023-03-01T14:27:00;5.53;;;4.23;;
10201;SDS011;5143;42.584;23.164;2023-03-01T14:29:33;6.37;;;4.27;;
10201;SDS011;5143;42.584;23.164;2023-03-01T14:32:10;5.53;;;3.87;;
10201;SDS011;5143;42.584;23.164;2023-03-01T14:34:42;9.53;;;4.23;;
10201;SDS011;5143;42.584;23.164;2023-03-01T14:37:11;4.87;;;3.87;;
10201;SDS011;5143;42.584;23.164;2023-03-01T14:39:43;6.33;;;3.93;;
10201;SDS011;5143;42.584;23.164;2023-03-01T14:42:10;4.80;;;3.70;;
10201;SDS011;5143;42.584;23.164;2023-03-01T14:44:40;5.87;;;3.83;;
10201;SDS011;5143;42.584;23.164;2023-03-01T14:47:11;6.20;;;4.10;;
10201;SDS011;5143;42.584;23.164;2023-03-01T14:49:41;4.90;;;4.30;;
10201;SDS011;5143;42.584;23.164;2023-03-01T14:52:17;6.20;;;4.03;;
10201;SDS011;5143;42.584;23.164;2023-03-01T14:54:46;9.27;;;4.53;;
10201;SDS011;5143;42.584;23.164;2023-03-01T14:57:16;5.60;;;4.50;;
10201;SDS011;5143;42.584;23.164;2023-03-01T14:59:46;7.00;;;4.87;;
10201;SDS011;5143;42.584;23.164;2023-03-01T15:02:17;7.10;;;4.73;;
10201;SDS011;5143;42.584;23.164;2023-03-01T15:04:46;7.30;;;3.80;;
10201;SDS011;5143;42.584;23.164;2023-03-01T15:07:15;10.63;;;4.97;;
10201;SDS011;5143;42.584;23.164;2023-03-01T15:09:43;5.10;;;4.40;;
10201;SDS011;5143;42.584;23.164;2023-03-01T15:12:34;6.83;;;4.77;;
10201;SDS011;5143;42.584;23.164;2023-03-01T15:17:59;5.37;;;4.37;;
10201;SDS011;5143;42.584;23.164;2023-03-01T15:20:28;4.87;;;4.10;;
10201;SDS011;5143;42.584;23.164;2023-03-01T15:23:00;5.83;;;3.90;;